sensor_id;sensor_type;location;lat;lon;timestamp;P1;durP1;ratioP1;P2;durP2;ratioP2
16484;SDS011;8353;47.856;12.344;2023-07-13T00:01:43;1.55;;;1.13;;
16484;SDS011;8353;47.856;12.344;2023-07-13T00:04:17;2.13;;;1.38;;
16484;SDS011;8353;47.856;12.344;2023-07-13T00:06:48;1.75;;;1.40;;
16484;SDS011;8353;47.856;12.344;2023-07-13T00:09:19;1.38;;;1.25;;
16484;SDS011;8353;47.856;12.344;2023-07-13T00:11:51;1.20;;;1.05;;
16484;SDS011;8353;47.856;12.344;2023-07-13T00:14:22;1.98;;;1.50;;
16484;SDS011;8353;47.856;12.344;2023-07-13T00:16:53;2.25;;;1.23;;
16484;SDS011;8353;47.856;12.344;2023-07-13T00:19:25;1.05;;;1.02;;
16484;SDS011;8353;47.856;12.344;2023-07-13T00:21:55;2.13;;;1.30;;
16484;SDS011;8353;47.856;12.344;2023-07-13T00:24:26;1.88;;;1.10;;
16484;SDS011;8353;47.856;12.344;2023-07-13T00:26:57;0.98;;;0.82;;
16484;SDS011;8353;47.856;12.344;2023-07-13T00:29:27;1.75;;;1.10;;
16484;SDS011;8353;47.856;12.344;2023-07-13T00:31:59;1.77;;;0.88;;
16484;SDS011;8353;47.856;12.344;2023-07-13T00:34:31;1.20;;;1.10;;
16484;SDS011;8353;47.856;12.344;2023-07-13T00:37:01;1.60;;;1.08;;
16484;SDS011;8353;47.856;12.344;2023-07-13T00:39:32;1.20;;;1.00;;
16484;SDS011;8353;47.856;12.344;2023-07-13T00:42:03;1.10;;;1.00;;
16484;SDS011;8353;47.856;12.344;2023-07-13T00:44:34;1.85;;;0.88;;
16484;SDS011;8353;47.856;12.344;2023-07-13T00:47:05;1.15;;;1.00;;
16484;SDS011;8353;47.856;12.344;2023-07-13T00:49:37;1.00;;;0.80;;
16484;SDS011;8353;47.856;12.344;2023-07-13T00:52:08;1.10;;;0.88;;
16484;SDS011;8353;47.856;12.344;2023-07-13T00:54:40;0.93;;;0.85;;
16484;SDS011;8353;47.856;12.344;2023-07-13T00:57:15;1.80;;;1.00;;
16484;SDS011;8353;47.856;12.344;2023-07-13T00:59:50;1.02;;;0.90;;
16484;SDS011;8353;47.856;12.344;2023-07-13T01:02:24;1.50;;;1.30;;
16484;SDS011;8353;47.856;12.344;2023-07-13T01:04:57;1.35;;;1.13;;
16484;SDS011;8353;47.856;12.344;2023-07-13T01:07:28;2.05;;;0.82;;
16484;SDS011;8353;47.856;12.344;2023-07-13T01:09:59;0.70;;;0.70;;
16484;SDS011;8353;47.856;12.344;2023-07-13T01:12:34;1.95;;;1.00;;
16484;SDS011;8353;47.856;12.344;2023-07-13T01:15:05;1.48;;;1.17;;
16484;SDS011;8353;47.856;12.344;2023-07-13T01:17:56;1.55;;;1.17;;
16484;SDS011;8353;47.856;12.344;2023-07-13T01:20:28;0.90;;;0.80;;
16484;SDS011;8353;47.856;12.344;2023-07-13T01:23:00;1.98;;;1.38;;
16484;SDS011;8353;47.856;12.344;2023-07-13T01:25:31;1.60;;;1.40;;
16484;SDS011;8353;47.856;12.344;2023-07-13T01:28:01;1.10;;;1.00;;
16484;SDS011;8353;47.856;12.344;2023-07-13T01:30:32;2.00;;;0.80;;
16484;SDS011;8353;47.856;12.344;2023-07-13T01:33:02;0.80;;;0.80;;
16484;SDS011;8353;47.856;12.344;2023-07-13T01:35:33;1.42;;;1.30;;
16484;SDS011;8353;47.856;12.344;2023-07-13T01:38:05;1.90;;;1.50;;
16484;SDS011;8353;47.856;12.344;2023-07-13T01:40:37;1.30;;;0.90;;
16484;SDS011;8353;47.856;12.344;2023-07-13T01:43:08;1.00;;;1.00;;
16484;SDS011;8353;47.856;12.344;2023-07-13T01:45:38;2.00;;;1.33;;
16484;SDS011;8353;47.856;12.344;2023-07-13T01:48:09;1.50;;;1.02;;
16484;SDS011;8353;47.856;12.344;2023-07-13T01:50:55;1.20;;;1.10;;
16484;SDS011;8353;47.856;12.344;2023-07-13T01:53:28;1.75;;;1.25;;
16484;SDS011;8353;47.856;12.344;2023-07-13T01:55:58;1.00;;;0.90;;
16484;SDS011;8353;47.856;12.344;2023-07-13T01:58:28;1.08;;;0.95;;
16484;SDS011;8353;47.856;12.344;2023-07-13T02:00:59;1.40;;;0.80;;
16484;SDS011;8353;47.856;12.344;2023-07-13T02:03:29;1.48;;;1.17;;
16484;SDS011;8353;47.856;12.344;2023-07-13T02:05:59;1.13;;;1.00;;
16484;SDS011;8353;47.856;12.344;2023-07-13T02:08:31;1.05;;;0.95;;
16484;SDS011;8353;47.856;12.344;2023-07-13T02:11:02;2.50;;;1.50;;
16484;SDS011;8353;47.856;12.344;2023-07-13T02:13:33;2.10;;;1.88;;
16484;SDS011;8353;47.856;12.344;2023-07-13T02:16:03;1.20;;;1.10;;
16484;SDS011;8353;47.856;12.344;2023-07-13T02:18:35;1.23;;;1.10;;
16484;SDS011;8353;47.856;12.344;2023-07-13T02:21:06;1.20;;;0.93;;
16484;SDS011;8353;47.856;12.344;2023-07-13T02:23:37;1.48;;;1.30;;
16484;SDS011;8353;47.856;12.344;2023-07-13T02:26:08;1.05;;;0.90;;
16484;SDS011;8353;47.856;12.344;2023-07-13T02:28:40;1.77;;;1.20;;
16484;SDS011;8353;47.856;12.344;2023-07-13T02:31:11;1.40;;;1.30;;
16484;SDS011;8353;47.856;12.344;2023-07-13T02:33:43;2.53;;;1.30;;
16484;SDS011;8353;47.856;12.344;2023-07-13T02:36:13;2.55;;;1.05;;
16484;SDS011;8353;47.856;12.344;2023-07-13T02:38:46;1.52;;;1.20;;
16484;SDS011;8353;47.856;12.344;2023-07-13T02:41:19;1.55;;;1.00;;
16484;SDS011;8353;47.856;12.344;2023-07-13T02:43:49;2.45;;;1.35;;
16484;SDS011;8353;47.856;12.344;2023-07-13T02:46:19;1.35;;;1.25;;
16484;SDS011;8353;47.856;12.344;2023-07-13T02:48:50;2.58;;;0.90;;
16484;SDS011;8353;47.856;12.344;2023-07-13T02:51:22;1.42;;;1.08;;
16484;SDS011;8353;47.856;12.344;2023-07-13T02:53:53;1.88;;;0.90;;
16484;SDS011;8353;47.856;12.344;2023-07-13T02:56:25;1.17;;;1.08;;
16484;SDS011;8353;47.856;12.344;2023-07-13T02:58:56;1.20;;;0.90;;
16484;SDS011;8353;47.856;12.344;2023-07-13T03:01:27;2.15;;;1.33;;
16484;SDS011;8353;47.856;12.344;2023-07-13T03:03:58;1.52;;;1.23;;
16484;SDS011;8353;47.856;12.344;2023-07-13T03:06:28;1.35;;;0.95;;
16484;SDS011;8353;47.856;12.344;2023-07-13T03:09:02;1.38;;;0.90;;
16484;SDS011;8353;47.856;12.344;2023-07-13T03:11:33;1.17;;;0.70;;
16484;SDS011;8353;47.856;12.344;2023-07-13T03:14:03;1.50;;;1.38;;
16484;SDS011;8353;47.856;12.344;2023-07-13T03:16:34;1.20;;;1.10;;
16484;SDS011;8353;47.856;12.344;2023-07-13T03:19:04;0.98;;;0.90;;
16484;SDS011;8353;47.856;12.344;2023-07-13T03:21:34;1.17;;;0.90;;
16484;SDS011;8353;47.856;12.344;2023-07-13T03:24:06;0.98;;;0.98;;
16484;SDS011;8353;47.856;12.344;2023-07-13T03:26:36;1.60;;;0.80;;
16484;SDS011;8353;47.856;12.344;2023-07-13T03:29:08;0.73;;;0.73;;
16484;SDS011;8353;47.856;12.344;2023-07-13T03:31:39;1.77;;;1.13;;
16484;SDS011;8353;47.856;12.344;2023-07-13T03:34:10;1.70;;;1.27;;
16484;SDS011;8353;47.856;12.344;2023-07-13T03:36:40;1.90;;;1.52;;
16484;SDS011;8353;47.856;12.344;2023-07-13T03:39:12;0.90;;;0.90;;
16484;SDS011;8353;47.856;12.344;2023-07-13T03:41:42;1.67;;;1.13;;
16484;SDS011;8353;47.856;12.344;2023-07-13T03:44:12;1.60;;;1.05;;
16484;SDS011;8353;47.856;12.344;2023-07-13T03:46:42;1.10;;;1.00;;
16484;SDS011;8353;47.856;12.344;2023-07-13T03:49:12;1.35;;;1.15;;
16484;SDS011;8353;47.856;12.344;2023-07-13T03:51:44;1.05;;;0.95;;
16484;SDS011;8353;47.856;12.344;2023-07-13T03:54:16;1.30;;;1.05;;
16484;SDS011;8353;47.856;12.344;2023-07-13T03:56:46;1.45;;;1.30;;
16484;SDS011;8353;47.856;12.344;2023-07-13T03:59:16;2.28;;;1.13;;
16484;SDS011;8353;47.856;12.344;2023-07-13T04:01:46;1.15;;;1.02;;
16484;SDS011;8353;47.856;12.344;2023-07-13T04:04:17;1.40;;;1.30;;
16484;SDS011;8353;47.856;12.344;2023-07-13T04:06:47;1.15;;;1.00;;
16484;SDS011;8353;47.856;12.344;2023-07-13T04:09:19;1.02;;;0.98;;
16484;SDS011;8353;47.856;12.344;2023-07-13T04:11:50;1.05;;;0.95;;
16484;SDS011;8353;47.856;12.344;2023-07-13T04:14:20;2.17;;;1.15;;
16484;SDS011;8353;47.856;12.344;2023-07-13T04:16:50;1.73;;;1.27;;
16484;SDS011;8353;47.856;12.344;2023-07-13T04:19:23;1.80;;;1.30;;
16484;SDS011;8353;47.856;12.344;2023-07-13T04:21:53;1.25;;;1.15;;
16484;SDS011;8353;47.856;12.344;2023-07-13T04:24:25;1.70;;;1.10;;
16484;SDS011;8353;47.856;12.344;2023-07-13T04:26:55;1.20;;;1.10;;
16484;SDS011;8353;47.856;12.344;2023-07-13T04:29:28;1.77;;;0.90;;
16484;SDS011;8353;47.856;12.344;2023-07-13T04:31:59;2.58;;;2.13;;
16484;SDS011;8353;47.856;12.344;2023-07-13T04:34:29;2.15;;;1.77;;
16484;SDS011;8353;47.856;12.344;2023-07-13T04:37:00;2.22;;;1.60;;
16484;SDS011;8353;47.856;12.344;2023-07-13T04:39:31;2.22;;;1.42;;
16484;SDS011;8353;47.856;12.344;2023-07-13T04:42:02;1.50;;;1.38;;
16484;SDS011;8353;47.856;12.344;2023-07-13T04:44:33;1.70;;;1.40;;
16484;SDS011;8353;47.856;12.344;2023-07-13T04:47:03;1.63;;;1.52;;
16484;SDS011;8353;47.856;12.344;2023-07-13T04:49:33;2.42;;;1.27;;
16484;SDS011;8353;47.856;12.344;2023-07-13T04:52:04;2.90;;;1.38;;
16484;SDS011;8353;47.856;12.344;2023-07-13T04:54:37;3.08;;;1.30;;
16484;SDS011;8353;47.856;12.344;2023-07-13T04:57:07;2.13;;;1.40;;
16484;SDS011;8353;47.856;12.344;2023-07-13T04:59:37;2.20;;;1.75;;
16484;SDS011;8353;47.856;12.344;2023-07-13T05:02:09;2.90;;;1.65;;
16484;SDS011;8353;47.856;12.344;2023-07-13T05:04:39;2.70;;;1.52;;
16484;SDS011;8353;47.856;12.344;2023-07-13T05:07:10;2.47;;;1.88;;
16484;SDS011;8353;47.856;12.344;2023-07-13T05:09:42;5.38;;;2.25;;
16484;SDS011;8353;47.856;12.344;2023-07-13T05:12:11;2.05;;;1.92;;
16484;SDS011;8353;47.856;12.344;2023-07-13T05:14:42;2.08;;;1.90;;
16484;SDS011;8353;47.856;12.344;2023-07-13T05:17:13;3.80;;;2.65;;
16484;SDS011;8353;47.856;12.344;2023-07-13T05:19:43;6.45;;;3.50;;
16484;SDS011;8353;47.856;12.344;2023-07-13T05:22:14;2.22;;;2.00;;
16484;SDS011;8353;47.856;12.344;2023-07-13T05:24:46;5.22;;;2.83;;
16484;SDS011;8353;47.856;12.344;2023-07-13T05:27:16;2.60;;;2.30;;
16484;SDS011;8353;47.856;12.344;2023-07-13T05:30:05;2.55;;;2.00;;
16484;SDS011;8353;47.856;12.344;2023-07-13T05:32:39;2.00;;;1.90;;
16484;SDS011;8353;47.856;12.344;2023-07-13T05:35:10;2.40;;;2.05;;
16484;SDS011;8353;47.856;12.344;2023-07-13T05:37:40;3.88;;;2.50;;
16484;SDS011;8353;47.856;12.344;2023-07-13T05:40:12;3.50;;;2.50;;
16484;SDS011;8353;47.856;12.344;2023-07-13T05:42:45;2.95;;;1.70;;
16484;SDS011;8353;47.856;12.344;2023-07-13T05:45:15;3.05;;;2.22;;
16484;SDS011;8353;47.856;12.344;2023-07-13T05:47:45;2.35;;;1.88;;
16484;SDS011;8353;47.856;12.344;2023-07-13T05:50:16;2.28;;;2.08;;
16484;SDS011;8353;47.856;12.344;2023-07-13T05:52:47;3.50;;;1.83;;
16484;SDS011;8353;47.856;12.344;2023-07-13T05:55:18;2.80;;;2.00;;
16484;SDS011;8353;47.856;12.344;2023-07-13T05:57:49;1.98;;;1.80;;
16484;SDS011;8353;47.856;12.344;2023-07-13T06:00:22;4.07;;;2.58;;
16484;SDS011;8353;47.856;12.344;2023-07-13T06:02:53;3.00;;;2.70;;
16484;SDS011;8353;47.856;12.344;2023-07-13T06:05:23;2.67;;;2.20;;
16484;SDS011;8353;47.856;12.344;2023-07-13T06:07:53;1.80;;;1.70;;
16484;SDS011;8353;47.856;12.344;2023-07-13T06:10:25;4.15;;;3.25;;
16484;SDS011;8353;47.856;12.344;2023-07-13T06:12:55;3.95;;;2.75;;
16484;SDS011;8353;47.856;12.344;2023-07-13T06:15:26;2.58;;;2.38;;
16484;SDS011;8353;47.856;12.344;2023-07-13T06:17:58;2.38;;;2.17;;
16484;SDS011;8353;47.856;12.344;2023-07-13T06:20:33;2.45;;;1.58;;
16484;SDS011;8353;47.856;12.344;2023-07-13T06:23:04;3.00;;;2.13;;
16484;SDS011;8353;47.856;12.344;2023-07-13T06:25:36;2.92;;;2.17;;
16484;SDS011;8353;47.856;12.344;2023-07-13T06:28:06;3.53;;;2.35;;
16484;SDS011;8353;47.856;12.344;2023-07-13T06:30:38;2.85;;;2.03;;
16484;SDS011;8353;47.856;12.344;2023-07-13T06:33:09;1.95;;;1.70;;
16484;SDS011;8353;47.856;12.344;2023-07-13T06:35:40;2.03;;;1.90;;
16484;SDS011;8353;47.856;12.344;2023-07-13T06:38:14;1.52;;;1.42;;
16484;SDS011;8353;47.856;12.344;2023-07-13T06:40:48;2.28;;;1.92;;
16484;SDS011;8353;47.856;12.344;2023-07-13T06:43:18;2.03;;;1.70;;
16484;SDS011;8353;47.856;12.344;2023-07-13T06:45:49;2.38;;;2.15;;
16484;SDS011;8353;47.856;12.344;2023-07-13T06:48:19;2.95;;;2.10;;
16484;SDS011;8353;47.856;12.344;2023-07-13T06:50:50;2.45;;;1.80;;
16484;SDS011;8353;47.856;12.344;2023-07-13T06:53:21;2.75;;;2.00;;
16484;SDS011;8353;47.856;12.344;2023-07-13T06:55:54;3.15;;;2.55;;
16484;SDS011;8353;47.856;12.344;2023-07-13T06:58:24;2.47;;;2.25;;
16484;SDS011;8353;47.856;12.344;2023-07-13T07:00:57;2.35;;;1.75;;
16484;SDS011;8353;47.856;12.344;2023-07-13T07:03:28;3.80;;;1.90;;
16484;SDS011;8353;47.856;12.344;2023-07-13T07:06:00;1.70;;;1.60;;
16484;SDS011;8353;47.856;12.344;2023-07-13T07:08:30;3.25;;;2.30;;
16484;SDS011;8353;47.856;12.344;2023-07-13T07:11:02;5.25;;;2.50;;
16484;SDS011;8353;47.856;12.344;2023-07-13T07:13:34;2.05;;;1.95;;
16484;SDS011;8353;47.856;12.344;2023-07-13T07:16:05;2.33;;;1.80;;
16484;SDS011;8353;47.856;12.344;2023-07-13T07:18:35;2.10;;;1.70;;
16484;SDS011;8353;47.856;12.344;2023-07-13T07:21:08;2.13;;;1.92;;
16484;SDS011;8353;47.856;12.344;2023-07-13T07:23:40;2.08;;;1.90;;
16484;SDS011;8353;47.856;12.344;2023-07-13T07:26:14;2.28;;;2.08;;
16484;SDS011;8353;47.856;12.344;2023-07-13T07:28:46;2.33;;;2.13;;
16484;SDS011;8353;47.856;12.344;2023-07-13T07:31:16;2.53;;;1.88;;
16484;SDS011;8353;47.856;12.344;2023-07-13T07:33:46;2.08;;;1.88;;
16484;SDS011;8353;47.856;12.344;2023-07-13T07:36:18;2.33;;;1.63;;
16484;SDS011;8353;47.856;12.344;2023-07-13T07:38:48;2.00;;;1.80;;
16484;SDS011;8353;47.856;12.344;2023-07-13T07:41:20;3.65;;;1.90;;
16484;SDS011;8353;47.856;12.344;2023-07-13T07:43:51;2.35;;;1.90;;
16484;SDS011;8353;47.856;12.344;2023-07-13T07:46:22;1.85;;;1.70;;
16484;SDS011;8353;47.856;12.344;2023-07-13T07:48:52;3.65;;;2.03;;
16484;SDS011;8353;47.856;12.344;2023-07-13T07:51:23;2.42;;;2.10;;
16484;SDS011;8353;47.856;12.344;2023-07-13T07:53:54;6.13;;;2.60;;
16484;SDS011;8353;47.856;12.344;2023-07-13T07:56:25;2.25;;;2.00;;
16484;SDS011;8353;47.856;12.344;2023-07-13T07:58:57;1.80;;;1.70;;
16484;SDS011;8353;47.856;12.344;2023-07-13T08:01:28;2.53;;;1.80;;
16484;SDS011;8353;47.856;12.344;2023-07-13T08:03:58;2.72;;;1.90;;
16484;SDS011;8353;47.856;12.344;2023-07-13T08:06:28;2.58;;;1.85;;
16484;SDS011;8353;47.856;12.344;2023-07-13T08:08:58;1.83;;;1.73;;
16484;SDS011;8353;47.856;12.344;2023-07-13T08:11:31;1.73;;;1.60;;
16484;SDS011;8353;47.856;12.344;2023-07-13T08:14:03;3.05;;;1.73;;
16484;SDS011;8353;47.856;12.344;2023-07-13T08:16:34;2.90;;;1.90;;
16484;SDS011;8353;47.856;12.344;2023-07-13T08:19:04;3.35;;;1.88;;
16484;SDS011;8353;47.856;12.344;2023-07-13T08:21:35;3.55;;;1.70;;
16484;SDS011;8353;47.856;12.344;2023-07-13T08:24:07;3.53;;;1.80;;
16484;SDS011;8353;47.856;12.344;2023-07-13T08:26:38;2.33;;;1.63;;
16484;SDS011;8353;47.856;12.344;2023-07-13T08:29:09;2.45;;;1.77;;
16484;SDS011;8353;47.856;12.344;2023-07-13T08:31:39;2.30;;;1.95;;
16484;SDS011;8353;47.856;12.344;2023-07-13T08:34:10;4.30;;;2.25;;
16484;SDS011;8353;47.856;12.344;2023-07-13T08:36:40;1.70;;;1.60;;
16484;SDS011;8353;47.856;12.344;2023-07-13T08:39:11;2.58;;;1.92;;
16484;SDS011;8353;47.856;12.344;2023-07-13T08:41:43;2.63;;;1.60;;
16484;SDS011;8353;47.856;12.344;2023-07-13T08:44:16;3.38;;;2.22;;
16484;SDS011;8353;47.856;12.344;2023-07-13T08:46:57;3.17;;;1.92;;
16484;SDS011;8353;47.856;12.344;2023-07-13T08:49:28;3.03;;;1.67;;
16484;SDS011;8353;47.856;12.344;2023-07-13T08:52:00;2.17;;;1.90;;
16484;SDS011;8353;47.856;12.344;2023-07-13T08:54:39;2.35;;;1.90;;
16484;SDS011;8353;47.856;12.344;2023-07-13T08:57:13;2.63;;;2.33;;
16484;SDS011;8353;47.856;12.344;2023-07-13T08:59:47;2.17;;;1.77;;
16484;SDS011;8353;47.856;12.344;2023-07-13T09:02:21;2.53;;;1.95;;
16484;SDS011;8353;47.856;12.344;2023-07-13T09:04:56;3.88;;;2.63;;
16484;SDS011;8353;47.856;12.344;2023-07-13T09:07:34;2.40;;;1.80;;
16484;SDS011;8353;47.856;12.344;2023-07-13T09:10:16;2.38;;;2.05;;
16484;SDS011;8353;47.856;12.344;2023-07-13T09:12:57;1.83;;;1.73;;
16484;SDS011;8353;47.856;12.344;2023-07-13T09:15:39;2.42;;;2.22;;
16484;SDS011;8353;47.856;12.344;2023-07-13T09:18:14;2.55;;;2.33;;
16484;SDS011;8353;47.856;12.344;2023-07-13T09:20:54;2.50;;;2.05;;
16484;SDS011;8353;47.856;12.344;2023-07-13T09:23:29;2.80;;;1.95;;
16484;SDS011;8353;47.856;12.344;2023-07-13T09:26:02;3.65;;;2.47;;
16484;SDS011;8353;47.856;12.344;2023-07-13T09:28:38;3.22;;;2.50;;
16484;SDS011;8353;47.856;12.344;2023-07-13T09:31:11;2.60;;;1.80;;
16484;SDS011;8353;47.856;12.344;2023-07-13T09:33:45;3.20;;;1.95;;
16484;SDS011;8353;47.856;12.344;2023-07-13T09:36:20;2.28;;;1.80;;
16484;SDS011;8353;47.856;12.344;2023-07-13T09:38:56;3.95;;;2.47;;
16484;SDS011;8353;47.856;12.344;2023-07-13T09:41:35;2.72;;;1.63;;
16484;SDS011;8353;47.856;12.344;2023-07-13T09:44:15;1.95;;;1.80;;
16484;SDS011;8353;47.856;12.344;2023-07-13T09:46:49;3.55;;;2.60;;
16484;SDS011;8353;47.856;12.344;2023-07-13T09:49:23;1.70;;;1.60;;
16484;SDS011;8353;47.856;12.344;2023-07-13T09:51:57;2.45;;;2.13;;
16484;SDS011;8353;47.856;12.344;2023-07-13T09:54:29;6.80;;;2.88;;
16484;SDS011;8353;47.856;12.344;2023-07-13T09:57:08;2.25;;;2.05;;
16484;SDS011;8353;47.856;12.344;2023-07-13T09:59:44;4.32;;;2.20;;
16484;SDS011;8353;47.856;12.344;2023-07-13T10:02:23;2.42;;;1.70;;
16484;SDS011;8353;47.856;12.344;2023-07-13T10:04:55;3.40;;;1.77;;
16484;SDS011;8353;47.856;12.344;2023-07-13T10:07:27;2.78;;;2.50;;
16484;SDS011;8353;47.856;12.344;2023-07-13T10:09:59;4.25;;;2.35;;
16484;SDS011;8353;47.856;12.344;2023-07-13T10:12:35;2.95;;;2.00;;
16484;SDS011;8353;47.856;12.344;2023-07-13T10:15:13;2.42;;;1.85;;
16484;SDS011;8353;47.856;12.344;2023-07-13T10:17:46;4.28;;;2.10;;
16484;SDS011;8353;47.856;12.344;2023-07-13T10:20:18;3.88;;;2.45;;
16484;SDS011;8353;47.856;12.344;2023-07-13T10:22:54;2.90;;;2.20;;
16484;SDS011;8353;47.856;12.344;2023-07-13T10:25:29;5.40;;;2.28;;
16484;SDS011;8353;47.856;12.344;2023-07-13T10:28:04;3.80;;;2.58;;
16484;SDS011;8353;47.856;12.344;2023-07-13T10:30:42;3.20;;;1.58;;
16484;SDS011;8353;47.856;12.344;2023-07-13T10:33:16;3.63;;;2.30;;
16484;SDS011;8353;47.856;12.344;2023-07-13T10:35:47;2.50;;;2.25;;
16484;SDS011;8353;47.856;12.344;2023-07-13T10:38:21;3.92;;;2.83;;
16484;SDS011;8353;47.856;12.344;2023-07-13T10:40:55;2.03;;;1.85;;
16484;SDS011;8353;47.856;12.344;2023-07-13T10:43:32;2.40;;;2.20;;
16484;SDS011;8353;47.856;12.344;2023-07-13T10:46:08;8.32;;;3.10;;
16484;SDS011;8353;47.856;12.344;2023-07-13T10:48:45;3.35;;;2.42;;
16484;SDS011;8353;47.856;12.344;2023-07-13T10:51:19;3.90;;;1.90;;
16484;SDS011;8353;47.856;12.344;2023-07-13T10:56:48;5.00;;;2.47;;
16484;SDS011;8353;47.856;12.344;2023-07-13T10:59:23;3.05;;;1.88;;
16484;SDS011;8353;47.856;12.344;2023-07-13T11:01:58;3.28;;;2.38;;
16484;SDS011;8353;47.856;12.344;2023-07-13T11:04:41;4.35;;;2.20;;
16484;SDS011;8353;47.856;12.344;2023-07-13T11:07:19;3.20;;;2.40;;
16484;SDS011;8353;47.856;12.344;2023-07-13T11:09:53;6.25;;;2.55;;
16484;SDS011;8353;47.856;12.344;2023-07-13T11:12:27;5.47;;;2.30;;
16484;SDS011;8353;47.856;12.344;2023-07-13T11:15:28;3.97;;;3.58;;
16484;SDS011;8353;47.856;12.344;2023-07-13T11:18:04;3.80;;;2.50;;
16484;SDS011;8353;47.856;12.344;2023-07-13T11:20:50;3.25;;;2.03;;
16484;SDS011;8353;47.856;12.344;2023-07-13T11:23:28;3.63;;;3.33;;
16484;SDS011;8353;47.856;12.344;2023-07-13T11:26:02;2.58;;;2.15;;
16484;SDS011;8353;47.856;12.344;2023-07-13T11:28:33;3.22;;;2.45;;
16484;SDS011;8353;47.856;12.344;2023-07-13T11:31:13;3.33;;;2.65;;
16484;SDS011;8353;47.856;12.344;2023-07-13T11:33:55;2.90;;;2.30;;
16484;SDS011;8353;47.856;12.344;2023-07-13T11:36:30;2.95;;;2.35;;
16484;SDS011;8353;47.856;12.344;2023-07-13T11:39:16;3.58;;;2.47;;
16484;SDS011;8353;47.856;12.344;2023-07-13T11:41:50;4.75;;;2.45;;
16484;SDS011;8353;47.856;12.344;2023-07-13T11:44:26;6.35;;;2.50;;
16484;SDS011;8353;47.856;12.344;2023-07-13T11:46:59;3.60;;;2.30;;
16484;SDS011;8353;47.856;12.344;2023-07-13T11:49:42;2.42;;;1.80;;
16484;SDS011;8353;47.856;12.344;2023-07-13T11:52:16;3.38;;;2.08;;
16484;SDS011;8353;47.856;12.344;2023-07-13T11:54:50;2.50;;;1.80;;
16484;SDS011;8353;47.856;12.344;2023-07-13T11:57:24;3.28;;;2.00;;
16484;SDS011;8353;47.856;12.344;2023-07-13T12:00:00;2.13;;;1.90;;
16484;SDS011;8353;47.856;12.344;2023-07-13T12:02:36;1.92;;;1.70;;
16484;SDS011;8353;47.856;12.344;2023-07-13T12:05:13;5.85;;;2.85;;
16484;SDS011;8353;47.856;12.344;2023-07-13T12:07:46;2.05;;;1.90;;
16484;SDS011;8353;47.856;12.344;2023-07-13T12:10:18;3.10;;;2.70;;
16484;SDS011;8353;47.856;12.344;2023-07-13T12:12:52;3.85;;;2.22;;
16484;SDS011;8353;47.856;12.344;2023-07-13T12:15:23;4.60;;;2.50;;
16484;SDS011;8353;47.856;12.344;2023-07-13T12:18:00;2.53;;;1.70;;
16484;SDS011;8353;47.856;12.344;2023-07-13T12:20:35;4.63;;;3.38;;
16484;SDS011;8353;47.856;12.344;2023-07-13T12:23:10;3.40;;;2.58;;
16484;SDS011;8353;47.856;12.344;2023-07-13T12:25:52;3.03;;;2.63;;
16484;SDS011;8353;47.856;12.344;2023-07-13T12:28:35;5.00;;;2.28;;
16484;SDS011;8353;47.856;12.344;2023-07-13T12:31:19;3.13;;;2.05;;
16484;SDS011;8353;47.856;12.344;2023-07-13T12:33:56;2.60;;;1.88;;
16484;SDS011;8353;47.856;12.344;2023-07-13T12:36:33;4.18;;;2.05;;
16484;SDS011;8353;47.856;12.344;2023-07-13T12:39:11;2.25;;;1.65;;
16484;SDS011;8353;47.856;12.344;2023-07-13T12:41:44;4.90;;;2.30;;
16484;SDS011;8353;47.856;12.344;2023-07-13T12:44:16;4.55;;;1.77;;
16484;SDS011;8353;47.856;12.344;2023-07-13T12:46:55;3.42;;;1.88;;
16484;SDS011;8353;47.856;12.344;2023-07-13T12:49:30;2.63;;;1.60;;
16484;SDS011;8353;47.856;12.344;2023-07-13T12:52:12;3.95;;;1.83;;
16484;SDS011;8353;47.856;12.344;2023-07-13T12:54:52;2.35;;;1.42;;
16484;SDS011;8353;47.856;12.344;2023-07-13T12:57:25;2.72;;;1.65;;
16484;SDS011;8353;47.856;12.344;2023-07-13T12:59:56;3.25;;;1.48;;
16484;SDS011;8353;47.856;12.344;2023-07-13T13:02:28;3.28;;;2.08;;
16484;SDS011;8353;47.856;12.344;2023-07-13T13:05:00;1.70;;;1.40;;
16484;SDS011;8353;47.856;12.344;2023-07-13T13:07:34;2.45;;;1.60;;
16484;SDS011;8353;47.856;12.344;2023-07-13T13:10:10;3.40;;;1.90;;
16484;SDS011;8353;47.856;12.344;2023-07-13T13:12:42;2.47;;;1.25;;
16484;SDS011;8353;47.856;12.344;2023-07-13T13:15:13;2.90;;;1.58;;
16484;SDS011;8353;47.856;12.344;2023-07-13T13:17:45;2.45;;;1.35;;
16484;SDS011;8353;47.856;12.344;2023-07-13T13:20:17;1.48;;;1.33;;
16484;SDS011;8353;47.856;12.344;2023-07-13T13:22:50;2.00;;;1.27;;
16484;SDS011;8353;47.856;12.344;2023-07-13T13:25:22;2.80;;;1.30;;
16484;SDS011;8353;47.856;12.344;2023-07-13T13:27:52;2.63;;;1.50;;
16484;SDS011;8353;47.856;12.344;2023-07-13T13:30:23;1.75;;;1.30;;
16484;SDS011;8353;47.856;12.344;2023-07-13T13:32:53;1.70;;;1.50;;
16484;SDS011;8353;47.856;12.344;2023-07-13T13:35:23;3.08;;;1.40;;
16484;SDS011;8353;47.856;12.344;2023-07-13T13:37:57;1.65;;;1.48;;
16484;SDS011;8353;47.856;12.344;2023-07-13T13:40:27;2.97;;;1.42;;
16484;SDS011;8353;47.856;12.344;2023-07-13T13:43:17;2.17;;;1.33;;
16484;SDS011;8353;47.856;12.344;2023-07-13T13:45:48;3.50;;;1.60;;
16484;SDS011;8353;47.856;12.344;2023-07-13T13:48:19;2.83;;;1.40;;
16484;SDS011;8353;47.856;12.344;2023-07-13T13:50:59;1.40;;;1.30;;
16484;SDS011;8353;47.856;12.344;2023-07-13T13:53:35;2.35;;;1.55;;
16484;SDS011;8353;47.856;12.344;2023-07-13T13:56:07;3.10;;;1.50;;
16484;SDS011;8353;47.856;12.344;2023-07-13T13:58:38;3.72;;;1.60;;
16484;SDS011;8353;47.856;12.344;2023-07-13T14:01:12;1.35;;;1.17;;
16484;SDS011;8353;47.856;12.344;2023-07-13T14:03:44;2.20;;;1.50;;
16484;SDS011;8353;47.856;12.344;2023-07-13T14:06:17;1.88;;;1.10;;
16484;SDS011;8353;47.856;12.344;2023-07-13T14:08:51;2.25;;;1.30;;
16484;SDS011;8353;47.856;12.344;2023-07-13T14:11:21;3.97;;;1.42;;
16484;SDS011;8353;47.856;12.344;2023-07-13T14:13:53;1.67;;;1.40;;
16484;SDS011;8353;47.856;12.344;2023-07-13T14:16:28;2.10;;;1.00;;
16484;SDS011;8353;47.856;12.344;2023-07-13T14:19:01;2.17;;;1.30;;
16484;SDS011;8353;47.856;12.344;2023-07-13T14:21:31;1.23;;;1.13;;
16484;SDS011;8353;47.856;12.344;2023-07-13T14:24:02;2.20;;;1.40;;
16484;SDS011;8353;47.856;12.344;2023-07-13T14:26:35;1.85;;;1.40;;
16484;SDS011;8353;47.856;12.344;2023-07-13T14:29:11;1.35;;;1.20;;
16484;SDS011;8353;47.856;12.344;2023-07-13T14:31:45;3.20;;;1.58;;
16484;SDS011;8353;47.856;12.344;2023-07-13T14:34:17;1.83;;;1.27;;
16484;SDS011;8353;47.856;12.344;2023-07-13T14:36:47;1.88;;;1.30;;
16484;SDS011;8353;47.856;12.344;2023-07-13T14:39:20;1.55;;;1.30;;
16484;SDS011;8353;47.856;12.344;2023-07-13T14:41:53;3.70;;;1.55;;
16484;SDS011;8353;47.856;12.344;2023-07-13T14:44:25;3.53;;;1.65;;
16484;SDS011;8353;47.856;12.344;2023-07-13T14:46:58;1.38;;;1.10;;
16484;SDS011;8353;47.856;12.344;2023-07-13T14:49:33;2.55;;;1.42;;
16484;SDS011;8353;47.856;12.344;2023-07-13T14:52:08;1.60;;;1.40;;
16484;SDS011;8353;47.856;12.344;2023-07-13T14:54:43;1.75;;;1.25;;
16484;SDS011;8353;47.856;12.344;2023-07-13T14:57:15;2.83;;;1.40;;
16484;SDS011;8353;47.856;12.344;2023-07-13T14:59:48;2.53;;;1.60;;
16484;SDS011;8353;47.856;12.344;2023-07-13T15:02:21;1.60;;;1.15;;
16484;SDS011;8353;47.856;12.344;2023-07-13T15:04:57;1.90;;;1.58;;
16484;SDS011;8353;47.856;12.344;2023-07-13T15:07:28;3.63;;;1.60;;
16484;SDS011;8353;47.856;12.344;2023-07-13T15:10:08;1.42;;;1.30;;
16484;SDS011;8353;47.856;12.344;2023-07-13T15:12:43;1.83;;;1.58;;
16484;SDS011;8353;47.856;12.344;2023-07-13T15:15:14;3.20;;;1.88;;
16484;SDS011;8353;47.856;12.344;2023-07-13T15:17:45;1.33;;;1.23;;
16484;SDS011;8353;47.856;12.344;2023-07-13T15:20:19;3.10;;;1.30;;
16484;SDS011;8353;47.856;12.344;2023-07-13T15:22:55;2.67;;;1.30;;
16484;SDS011;8353;47.856;12.344;2023-07-13T15:25:28;3.35;;;2.40;;